createdAt,value
2023-03-01T00:01:42.278Z,-1.80
2023-03-01T00:04:12.426Z,-1.79
2023-03-01T00:06:40.052Z,-1.78
2023-03-01T00:09:07.611Z,-1.79
2023-03-01T00:11:36.697Z,-1.80
2023-03-01T00:14:07.565Z,-1.81
2023-03-01T00:16:40.608Z,-1.83
2023-03-01T00:19:09.352Z,-1.84
2023-03-01T00:21:38.174Z,-1.85
2023-03-01T00:24:06.274Z,-1.86
2023-03-01T00:26:33.878Z,-1.89
2023-03-01T00:29:01.890Z,-1.90
2023-03-01T00:31:33.244Z,-1.92
2023-03-01T00:34:02.434Z,-1.93
2023-03-01T00:36:31.700Z,-1.94
2023-03-01T00:39:01.542Z,-1.96
2023-03-01T00:41:29.515Z,-1.97
2023-03-01T00:43:57.968Z,-1.99
2023-03-01T00:46:28.431Z,-2.00
2023-03-01T00:48:58.180Z,-2.02
2023-03-01T00:51:28.122Z,-2.05
2023-03-01T00:54:02.360Z,-2.07
2023-03-01T00:56:32.926Z,-2.10
2023-03-01T00:59:00.806Z,-2.10
2023-03-01T01:01:31.422Z,-2.13
2023-03-01T01:04:00.967Z,-2.14
2023-03-01T01:06:30.360Z,-2.14
2023-03-01T01:08:59.409Z,-2.16
2023-03-01T01:11:30.477Z,-2.18
2023-03-01T01:13:59.395Z,-2.19
2023-03-01T01:16:29.022Z,-2.21
2023-03-01T01:18:57.577Z,-2.22
2023-03-01T01:21:27.899Z,-2.25
2023-03-01T01:23:56.957Z,-2.26
2023-03-01T01:26:28.959Z,-2.27
2023-03-01T01:28:57.135Z,-2.30
2023-03-01T01:31:26.494Z,-2.32
2023-03-01T01:33:55.233Z,-2.34
2023-03-01T01:36:23.160Z,-2.36
2023-03-01T01:38:50.671Z,-2.37
2023-03-01T01:41:20.704Z,-2.40
2023-03-01T01:43:53.375Z,-2.43
2023-03-01T01:46:30.612Z,-2.43
2023-03-01T01:49:02.071Z,-2.44
2023-03-01T01:51:39.194Z,-2.45
2023-03-01T01:54:12.385Z,-2.47
2023-03-01T01:56:43.459Z,-2.49
2023-03-01T01:59:14.827Z,-2.49
2023-03-01T02:01:42.551Z,-2.50
2023-03-01T02:04:10.327Z,-2.53
2023-03-01T02:06:43.180Z,-2.53
2023-03-01T02:09:16.339Z,-2.53
2023-03-01T02:11:45.643Z,-2.55
2023-03-01T02:14:14.641Z,-2.57
2023-03-01T02:16:43.091Z,-2.57
2023-03-01T02:19:22.325Z,-2.59
2023-03-01T02:22:01.021Z,-2.60
2023-03-01T02:24:37.107Z,-2.62
2023-03-01T02:27:06.260Z,-2.64
2023-03-01T02:29:37.359Z,-2.65
2023-03-01T02:32:06.941Z,-2.67
2023-03-01T02:34:35.747Z,-2.67
2023-03-01T02:37:07.164Z,-2.69
2023-03-01T02:39:43.335Z,-2.71
2023-03-01T02:42:16.376Z,-2.73
2023-03-01T02:44:46.588Z,-2.76
2023-03-01T02:47:14.084Z,-2.77
2023-03-01T02:49:42.344Z,-2.77
2023-03-01T02:52:22.816Z,-2.80
2023-03-01T02:54:56.354Z,-2.81
2023-03-01T02:57:25.316Z,-2.82
2023-03-01T02:59:58.328Z,-2.84
2023-03-01T03:02:38.468Z,-2.85
2023-03-01T03:05:12.829Z,-2.88
2023-03-01T03:07:42.637Z,-2.89
2023-03-01T03:10:14.434Z,-2.93
2023-03-01T03:12:43.248Z,-2.94
2023-03-01T03:15:13.512Z,-2.98
2023-03-01T03:17:45.278Z,-2.96
2023-03-01T03:20:20.414Z,-2.98
2023-03-01T03:22:50.386Z,-2.98
2023-03-01T03:25:19.638Z,-2.99
2023-03-01T03:27:51.333Z,-3.00
2023-03-01T03:30:22.688Z,-3.01
2023-03-01T03:32:53.162Z,-3.02
2023-03-01T03:35:21.902Z,-3.05
2023-03-01T03:38:03.741Z,-3.06
2023-03-01T03:40:36.624Z,-3.10
2023-03-01T03:43:04.880Z,-3.10
2023-03-01T03:45:34.660Z,-3.11
2023-03-01T03:48:02.656Z,-3.13
2023-03-01T03:50:30.452Z,-3.14
2023-03-01T03:52:58.417Z,-3.17
2023-03-01T03:55:30.878Z,-3.17
2023-03-01T03:58:03.045Z,-3.19
2023-03-01T04:00:31.531Z,-3.20
2023-03-01T04:03:00.399Z,-3.22
2023-03-01T04:05:29.476Z,-3.23
2023-03-01T04:08:08.113Z,-3.25
2023-03-01T04:10:38.934Z,-3.26
2023-03-01T04:13:07.680Z,-3.28
2023-03-01T04:15:35.945Z,-3.28
2023-03-01T04:18:06.326Z,-3.30
2023-03-01T04:20:36.609Z,-3.31
2023-03-01T04:23:15.355Z,-3.31
2023-03-01T04:25:47.355Z,-3.34
2023-03-01T04:28:15.762Z,-3.35
2023-03-01T04:30:43.305Z,-3.36
2023-03-01T04:33:13.449Z,-3.37
2023-03-01T04:35:41.849Z,-3.38
2023-03-01T04:38:10.233Z,-3.39
2023-03-01T04:40:38.108Z,-3.41
2023-03-01T04:43:06.456Z,-3.42
2023-03-01T04:45:36.330Z,-3.42
2023-03-01T04:48:06.308Z,-3.44
2023-03-01T04:50:36.872Z,-3.46
2023-03-01T04:53:04.808Z,-3.47
2023-03-01T04:55:32.482Z,-3.50
2023-03-01T04:58:01.315Z,-3.51
2023-03-01T05:00:30.371Z,-3.53
2023-03-01T05:03:01.183Z,-3.54
2023-03-01T05:05:30.740Z,-3.55
2023-03-01T05:08:02.301Z,-3.57
2023-03-01T05:10:31.571Z,-3.57
2023-03-01T05:13:01.936Z,-3.59
2023-03-01T05:15:31.660Z,-3.60
2023-03-01T05:18:01.318Z,-3.61
2023-03-01T05:20:32.311Z,-3.65
2023-03-01T05:23:06.016Z,-3.67
2023-03-01T05:25:35.354Z,-3.70
2023-03-01T05:28:05.456Z,-3.70
2023-03-01T05:30:33.741Z,-3.72
2023-03-01T05:33:26.789Z,-3.78
2023-03-01T05:35:55.810Z,-3.79
2023-03-01T05:38:25.194Z,-3.82
2023-03-01T05:40:54.612Z,-3.84
2023-03-01T05:43:22.720Z,-3.87
2023-03-01T05:45:50.452Z,-3.90
2023-03-01T05:48:20.461Z,-3.92
2023-03-01T05:50:48.499Z,-3.95
2023-03-01T05:53:17.755Z,-3.97
2023-03-01T05:55:48.374Z,-4.01
2023-03-01T05:58:18.943Z,-4.03
2023-03-01T06:00:48.536Z,-4.06
2023-03-01T06:03:18.810Z,-4.08
2023-03-01T06:05:47.443Z,-4.10
2023-03-01T06:08:15.707Z,-4.12
2023-03-01T06:10:44.326Z,-4.15
2023-03-01T06:13:13.168Z,-4.16
2023-03-01T06:15:40.714Z,-4.20
2023-03-01T06:18:08.287Z,-4.22
2023-03-01T06:20:36.408Z,-4.23
2023-03-01T06:23:03.906Z,-4.25
2023-03-01T06:25:35.316Z,-4.28
2023-03-01T06:28:03.386Z,-4.31
2023-03-01T06:30:32.947Z,-4.31
2023-03-01T06:33:02.255Z,-4.33
2023-03-01T06:35:32.416Z,-4.34
2023-03-01T06:38:01.561Z,-4.35
2023-03-01T06:40:31.303Z,-4.35
2023-03-01T06:43:00.488Z,-4.35
2023-03-01T06:45:29.300Z,-4.34
2023-03-01T06:48:05.548Z,-4.34
2023-03-01T06:51:02.337Z,-4.34
2023-03-01T06:53:30.047Z,-4.33
2023-03-01T06:56:21.934Z,-4.35
2023-03-01T06:58:49.412Z,-4.34
2023-03-01T07:01:18.340Z,-4.34
2023-03-01T07:03:47.436Z,-4.32
2023-03-01T07:06:15.391Z,-4.31
2023-03-01T07:08:44.768Z,-4.28
2023-03-01T07:11:12.309Z,-4.23
2023-03-01T07:13:39.789Z,-4.19
2023-03-01T07:16:09.602Z,-4.15
2023-03-01T07:18:37.759Z,-4.10
2023-03-01T07:21:13.069Z,-4.05
2023-03-01T07:23:41.171Z,-3.98
2023-03-01T07:26:08.888Z,-3.92
2023-03-01T07:28:40.385Z,-3.83
2023-03-01T07:31:08.685Z,-3.70
2023-03-01T07:33:36.227Z,-3.55
2023-03-01T07:36:06.206Z,-3.36
2023-03-01T07:38:36.382Z,-3.12
2023-03-01T07:41:06.547Z,-2.86
2023-03-01T07:43:34.135Z,-2.65
2023-03-01T07:46:02.245Z,-2.49
2023-03-01T07:48:30.705Z,-2.31
2023-03-01T07:51:00.021Z,-2.05
2023-03-01T07:53:29.304Z,-1.86
2023-03-01T07:56:04.996Z,-1.67
2023-03-01T07:58:33.457Z,-1.50
2023-03-01T08:01:04.280Z,-1.35
2023-03-01T08:03:35.356Z,-1.19
2023-03-01T08:06:03.959Z,-1.03
2023-03-01T08:08:31.850Z,-0.89
2023-03-01T08:11:00.097Z,-0.76
2023-03-01T08:13:29.744Z,-0.61
2023-03-01T08:16:04.696Z,-0.48
2023-03-01T08:18:32.326Z,-0.40
2023-03-01T08:21:03.989Z,-0.32
2023-03-01T08:23:31.848Z,-0.23
2023-03-01T08:26:06.878Z,-0.12
2023-03-01T08:28:36.384Z,0.04
2023-03-01T08:31:06.458Z,0.13
2023-03-01T08:33:33.944Z,0.30
2023-03-01T08:36:07.795Z,0.53
2023-03-01T08:38:35.492Z,0.69
2023-03-01T08:41:03.163Z,0.90
2023-03-01T08:43:30.777Z,1.11
2023-03-01T08:45:59.654Z,1.23
2023-03-01T08:48:29.735Z,1.33
2023-03-01T08:50:58.748Z,1.42
2023-03-01T08:53:26.370Z,1.46
2023-03-01T08:55:54.312Z,1.48
2023-03-01T08:58:21.840Z,1.53
2023-03-01T09:00:51.311Z,1.53
2023-03-01T09:03:20.345Z,1.65
2023-03-01T09:05:47.825Z,1.91
2023-03-01T09:08:16.331Z,2.11
2023-03-01T09:10:44.043Z,2.35
2023-03-01T09:13:12.307Z,2.50
2023-03-01T09:15:40.831Z,2.55
2023-03-01T09:18:09.330Z,2.56
2023-03-01T09:20:39.148Z,2.71
2023-03-01T09:23:06.619Z,2.86
2023-03-01T09:25:35.813Z,2.98
2023-03-01T09:28:04.792Z,3.12
2023-03-01T09:30:32.441Z,3.19
2023-03-01T09:33:00.021Z,3.24
2023-03-01T09:35:28.324Z,3.25
2023-03-01T09:37:57.188Z,3.26
2023-03-01T09:40:29.119Z,3.38
2023-03-01T09:43:01.375Z,3.39
2023-03-01T09:45:35.344Z,3.39
2023-03-01T09:48:08.119Z,3.45
2023-03-01T09:50:37.403Z,3.47
2023-03-01T09:53:09.139Z,3.47
2023-03-01T09:55:42.129Z,3.59
2023-03-01T09:58:29.685Z,3.71
2023-03-01T10:01:02.310Z,3.76
2023-03-01T10:03:37.421Z,3.87
2023-03-01T10:06:27.472Z,3.91
2023-03-01T10:09:07.439Z,3.90
2023-03-01T10:11:40.694Z,4.01
2023-03-01T10:14:22.198Z,4.08
2023-03-01T10:16:55.354Z,4.16
2023-03-01T10:19:27.499Z,4.14
2023-03-01T10:21:55.333Z,4.24
2023-03-01T10:24:24.183Z,4.24
2023-03-01T10:26:58.337Z,4.32
2023-03-01T10:29:30.739Z,4.40
2023-03-01T10:31:59.341Z,4.43
2023-03-01T10:34:31.386Z,4.54
2023-03-01T10:36:59.747Z,4.54
2023-03-01T10:39:29.299Z,4.54
2023-03-01T10:42:00.392Z,4.49
2023-03-01T10:44:45.382Z,4.46
2023-03-01T10:47:21.323Z,4.51
2023-03-01T10:49:58.386Z,4.63
2023-03-01T10:52:28.802Z,4.63
2023-03-01T10:55:00.325Z,4.71
2023-03-01T10:57:37.630Z,4.76
2023-03-01T11:00:25.364Z,4.75
2023-03-01T11:03:13.059Z,4.73
2023-03-01T11:06:02.662Z,4.80
2023-03-01T11:08:48.833Z,4.85
2023-03-01T11:11:34.316Z,4.82
2023-03-01T11:14:23.471Z,4.89
2023-03-01T11:17:02.789Z,4.86
2023-03-01T11:19:30.834Z,4.87
2023-03-01T11:22:05.463Z,4.84
2023-03-01T11:24:41.175Z,4.81
2023-03-01T11:27:18.720Z,4.78
2023-03-01T11:29:51.990Z,4.80
2023-03-01T11:32:21.644Z,4.90
2023-03-01T11:34:53.092Z,4.83
2023-03-01T11:37:35.366Z,4.88
2023-03-01T11:40:13.375Z,4.93
2023-03-01T11:42:52.333Z,4.96
2023-03-01T11:45:25.829Z,5.03
2023-03-01T11:48:05.151Z,5.04
2023-03-01T11:50:41.744Z,5.01
2023-03-01T11:53:49.118Z,5.10
2023-03-01T11:56:28.304Z,5.09
2023-03-01T11:59:23.697Z,5.12
2023-03-01T12:02:08.867Z,5.15
2023-03-01T12:05:02.441Z,5.16
2023-03-01T12:07:42.731Z,5.04
2023-03-01T12:10:26.376Z,5.03
2023-03-01T12:13:15.875Z,5.02
2023-03-01T12:16:09.364Z,5.03
2023-03-01T12:18:58.650Z,5.02
2023-03-01T12:21:41.547Z,5.11
2023-03-01T12:24:34.299Z,5.19
2023-03-01T12:27:39.394Z,5.14
2023-03-01T12:30:29.395Z,5.14
2023-03-01T12:33:15.943Z,5.18
2023-03-01T12:36:18.626Z,5.21
2023-03-01T12:38:53.304Z,5.24
2023-03-01T12:41:45.618Z,5.28
2023-03-01T12:44:17.420Z,5.28
2023-03-01T12:47:01.308Z,5.28
2023-03-01T12:49:36.366Z,5.27
2023-03-01T12:52:14.144Z,5.34
2023-03-01T12:54:46.300Z,5.36
2023-03-01T12:57:22.765Z,5.32
2023-03-01T13:00:10.545Z,5.38
2023-03-01T13:02:48.379Z,5.48
2023-03-01T13:05:34.341Z,5.40
2023-03-01T13:08:11.283Z,5.32
2023-03-01T13:10:45.454Z,5.46
2023-03-01T13:13:20.432Z,5.42
2023-03-01T13:15:48.744Z,5.53
2023-03-01T13:18:34.197Z,5.49
2023-03-01T13:21:06.309Z,5.54
2023-03-01T13:23:37.305Z,5.62
2023-03-01T13:26:16.616Z,5.69
2023-03-01T13:28:54.428Z,5.62
2023-03-01T13:32:05.786Z,5.71
2023-03-01T13:34:45.848Z,5.73
2023-03-01T13:37:24.515Z,5.80
2023-03-01T13:39:52.317Z,5.81
2023-03-01T13:42:46.550Z,5.81
2023-03-01T13:45:25.160Z,5.96
2023-03-01T13:47:59.340Z,5.93
2023-03-01T13:50:30.395Z,5.93
2023-03-01T13:53:02.333Z,6.06
2023-03-01T13:55:36.812Z,6.06
2023-03-01T13:58:17.908Z,5.98
2023-03-01T14:00:45.434Z,5.96
2023-03-01T14:03:16.308Z,6.00
2023-03-01T14:05:50.315Z,6.11
2023-03-01T14:08:24.358Z,6.14
2023-03-01T14:11:19.321Z,6.10
2023-03-01T14:14:01.876Z,6.11
2023-03-01T14:16:40.365Z,6.17
2023-03-01T14:19:31.123Z,6.23
2023-03-01T14:22:05.265Z,6.18
2023-03-01T14:24:39.444Z,6.14
2023-03-01T14:27:13.278Z,6.14
2023-03-01T14:29:42.243Z,6.14
2023-03-01T14:32:20.071Z,6.13
2023-03-01T14:34:49.549Z,6.12
2023-03-01T14:37:22.572Z,6.11
2023-03-01T14:39:53.517Z,6.12
2023-03-01T14:42:26.298Z,6.15
2023-03-01T14:44:56.402Z,6.12
2023-03-01T14:47:31.611Z,6.13
2023-03-01T14:50:03.047Z,6.13
2023-03-01T14:52:38.318Z,6.16
2023-03-01T14:55:17.394Z,6.15
2023-03-01T14:57:50.309Z,6.11
2023-03-01T15:00:22.071Z,6.13
2023-03-01T15:02:51.893Z,6.07
2023-03-01T15:05:30.983Z,6.05
2023-03-01T15:08:02.456Z,6.07
2023-03-01T15:10:34.321Z,6.00
2023-03-01T15:13:12.909Z,5.98
2023-03-01T15:15:47.210Z,6.00
2023-03-01T15:18:18.739Z,5.97
2023-03-01T15:20:49.441Z,5.95
2023-03-01T15:23:23.080Z,5.91
2023-03-01T15:25:58.204Z,5.89
2023-03-01T15:28:52.316Z,5.93
2023-03-01T15:31:23.277Z,5.85
2023-03-01T15:33:52.014Z,5.89
2023-03-01T15:36:36.448Z,5.86
2023-03-01T15:39:07.087Z,5.86
2023-03-01T15:41:48.527Z,5.83
2023-03-01T15:44:19.342Z,5.85
2023-03-01T15:46:50.010Z,5.79
2023-03-01T15:49:46.451Z,5.79
2023-03-01T15:52:29.940Z,5.80
2023-03-01T15:55:00.292Z,5.81
2023-03-01T15:57:29.295Z,5.78
2023-03-01T15:59:57.159Z,5.72
2023-03-01T16:02:25.849Z,5.69
2023-03-01T16:04:54.568Z,5.66
2023-03-01T16:07:22.232Z,5.67
2023-03-01T16:09:50.730Z,5.63
2023-03-01T16:12:18.619Z,5.58
2023-03-01T16:14:50.237Z,5.59
2023-03-01T16:17:17.937Z,5.54
2023-03-01T16:19:45.449Z,5.49
2023-03-01T16:22:13.055Z,5.45
2023-03-01T16:24:41.513Z,5.44
2023-03-01T16:27:09.033Z,5.38
2023-03-01T16:29:37.243Z,5.36
2023-03-01T16:32:07.195Z,5.32
2023-03-01T16:37:26.612Z,5.27
2023-03-01T16:39:54.359Z,5.19
2023-03-01T16:42:21.961Z,5.17
2023-03-01T16:44:49.434Z,5.18
2023-03-01T16:47:18.311Z,5.14
2023-03-01T16:49:46.015Z,5.09
2023-03-01T16:52:14.029Z,5.04
2023-03-01T16:54:41.535Z,4.99
2023-03-01T16:57:09.424Z,4.94
2023-03-01T16:59:38.343Z,4.89
2023-03-01T17:02:06.764Z,4.83
2023-03-01T17:04:36.312Z,4.79
2023-03-01T17:07:05.757Z,4.75
2023-03-01T17:09:36.522Z,4.69
2023-03-01T17:12:05.308Z,4.65
2023-03-01T17:14:34.331Z,4.62
2023-03-01T17:17:03.468Z,4.54
2023-03-01T17:19:32.675Z,4.48
2023-03-01T17:22:01.793Z,4.43
2023-03-01T17:24:30.248Z,4.39
2023-03-01T17:26:58.321Z,4.33
2023-03-01T17:29:25.859Z,4.24
2023-03-01T17:31:54.828Z,4.19
2023-03-01T17:34:23.139Z,4.12
2023-03-01T17:36:52.129Z,4.06
2023-03-01T17:39:25.650Z,3.95
2023-03-01T17:41:53.325Z,3.90
2023-03-01T17:44:21.368Z,3.84
2023-03-01T17:46:48.936Z,3.77
2023-03-01T17:49:17.814Z,3.71
2023-03-01T17:51:46.321Z,3.65
2023-03-01T17:54:13.853Z,3.58
2023-03-01T17:56:43.316Z,3.52
2023-03-01T17:59:10.840Z,3.45
2023-03-01T18:01:39.017Z,3.38
2023-03-01T18:04:07.299Z,3.31
2023-03-01T18:06:37.230Z,3.24
2023-03-01T18:09:05.934Z,3.19
2023-03-01T18:11:34.996Z,3.13
2023-03-01T18:14:04.734Z,3.06
2023-03-01T18:16:33.858Z,2.99
2023-03-01T18:19:02.726Z,2.92
2023-03-01T18:21:31.669Z,2.85
2023-03-01T18:23:59.624Z,2.78
2023-03-01T18:26:29.891Z,2.71
2023-03-01T18:29:00.985Z,2.65
2023-03-01T18:31:33.479Z,2.58
2023-03-01T18:34:01.875Z,2.53
2023-03-01T18:36:32.578Z,2.48
2023-03-01T18:39:00.485Z,2.44
2023-03-01T18:41:29.941Z,2.40
2023-03-01T18:43:58.393Z,2.35
2023-03-01T18:46:26.510Z,2.30
2023-03-01T18:48:55.544Z,2.26
2023-03-01T18:51:26.879Z,2.22
2023-03-01T18:53:57.336Z,2.16
2023-03-01T18:56:25.493Z,2.12
2023-03-01T18:58:53.403Z,2.07
2023-03-01T19:01:24.678Z,2.06
2023-03-01T19:03:57.139Z,2.06
2023-03-01T19:06:30.355Z,2.05
2023-03-01T19:08:58.750Z,2.08
2023-03-01T19:11:27.214Z,2.09
2023-03-01T19:13:55.197Z,2.12
2023-03-01T19:16:27.335Z,2.14
2023-03-01T19:19:00.384Z,2.14
2023-03-01T19:21:33.777Z,2.12
2023-03-01T19:24:03.039Z,2.10
2023-03-01T19:26:31.913Z,2.07
2023-03-01T19:29:00.329Z,2.03
2023-03-01T19:31:29.753Z,1.99
2023-03-01T19:34:10.948Z,1.95
2023-03-01T19:36:39.501Z,1.90
2023-03-01T19:39:08.306Z,1.85
2023-03-01T19:41:40.364Z,1.80
2023-03-01T19:44:08.670Z,1.72
2023-03-01T19:46:36.546Z,1.68
2023-03-01T19:49:07.629Z,1.63
2023-03-01T19:51:36.708Z,1.58
2023-03-01T19:54:05.560Z,1.56
2023-03-01T19:56:33.766Z,1.52
2023-03-01T19:59:04.095Z,1.51
2023-03-01T20:01:33.965Z,1.50
2023-03-01T20:04:01.604Z,1.49
2023-03-01T20:06:31.304Z,1.48
2023-03-01T20:09:06.301Z,1.46
2023-03-01T20:11:36.749Z,1.45
2023-03-01T20:14:06.608Z,1.43
2023-03-01T20:16:34.686Z,1.42
2023-03-01T20:19:02.680Z,1.41
2023-03-01T20:21:34.085Z,1.39
2023-03-01T20:24:02.208Z,1.37
2023-03-01T20:26:30.059Z,1.34
2023-03-01T20:28:58.071Z,1.33
2023-03-01T20:31:29.053Z,1.33
2023-03-01T20:33:58.706Z,1.33
2023-03-01T20:36:26.573Z,1.32
2023-03-01T20:38:55.923Z,1.31
2023-03-01T20:41:25.853Z,1.29
2023-03-01T20:43:57.320Z,1.27
2023-03-01T20:46:26.656Z,1.23
2023-03-01T20:48:54.877Z,1.21
2023-03-01T20:51:23.306Z,1.17
2023-03-01T20:53:51.124Z,1.14
2023-03-01T20:56:21.693Z,1.11
2023-03-01T20:59:05.428Z,1.06
2023-03-01T21:01:33.711Z,1.02
2023-03-01T21:04:01.305Z,0.99
2023-03-01T21:06:29.158Z,0.95
2023-03-01T21:08:56.907Z,0.93
2023-03-01T21:11:26.059Z,0.90
2023-03-01T21:13:53.933Z,0.88
2023-03-01T21:16:22.666Z,0.85
2023-03-01T21:18:50.668Z,0.82
2023-03-01T21:21:20.962Z,0.79
2023-03-01T21:23:48.886Z,0.77
2023-03-01T21:26:19.304Z,0.75
2023-03-01T21:28:50.096Z,0.72
2023-03-01T21:31:19.510Z,0.69
2023-03-01T21:33:49.225Z,0.66
2023-03-01T21:36:17.277Z,0.64
2023-03-01T21:38:47.360Z,0.60
2023-03-01T21:41:17.315Z,0.56
2023-03-01T21:43:49.118Z,0.53
2023-03-01T21:46:20.330Z,0.52
2023-03-01T21:48:49.756Z,0.53
2023-03-01T21:51:19.598Z,0.53
2023-03-01T21:53:47.489Z,0.56
2023-03-01T21:56:17.654Z,0.57
2023-03-01T21:58:46.090Z,0.58
2023-03-01T22:01:17.077Z,0.56
2023-03-01T22:03:48.393Z,0.54
2023-03-01T22:06:19.476Z,0.51
2023-03-01T22:08:48.362Z,0.48
2023-03-01T22:11:19.305Z,0.46
2023-03-01T22:13:49.426Z,0.43
2023-03-01T22:16:20.203Z,0.40
2023-03-01T22:18:48.430Z,0.37
2023-03-01T22:21:17.017Z,0.35
2023-03-01T22:23:44.706Z,0.33
2023-03-01T22:26:23.440Z,0.31
2023-03-01T22:28:51.776Z,0.30
2023-03-01T22:31:21.250Z,0.26
2023-03-01T22:33:50.460Z,0.25
2023-03-01T22:36:18.259Z,0.24
2023-03-01T22:38:46.163Z,0.23
2023-03-01T22:41:13.980Z,0.21
2023-03-01T22:43:41.624Z,0.20
2023-03-01T22:46:14.466Z,0.19
2023-03-01T22:48:43.496Z,0.18
2023-03-01T22:51:15.519Z,0.17
2023-03-01T22:53:43.240Z,0.15
2023-03-01T22:56:13.841Z,0.15
2023-03-01T22:58:41.440Z,0.14
2023-03-01T23:01:13.847Z,0.14
2023-03-01T23:03:42.777Z,0.18
2023-03-01T23:06:12.316Z,0.18
2023-03-01T23:08:40.315Z,0.18
2023-03-01T23:11:13.667Z,0.18
2023-03-01T23:13:41.396Z,0.16
2023-03-01T23:16:09.711Z,0.18
2023-03-01T23:18:37.331Z,0.18
2023-03-01T23:21:10.567Z,0.20
2023-03-01T23:23:38.588Z,0.22
2023-03-01T23:26:07.050Z,0.26
2023-03-01T23:28:35.144Z,0.28
2023-03-01T23:31:04.507Z,0.32
2023-03-01T23:33:37.664Z,0.35
2023-03-01T23:36:07.289Z,0.36
2023-03-01T23:38:37.067Z,0.37
2023-03-01T23:41:04.870Z,0.37
2023-03-01T23:43:33.077Z,0.36
2023-03-01T23:46:01.434Z,0.36
2023-03-01T23:48:29.979Z,0.35
2023-03-01T23:50:57.537Z,0.34
2023-03-01T23:53:25.134Z,0.32
2023-03-01T23:55:55.131Z,0.29
2023-03-01T23:58:28.223Z,0.25
